Time;durP1;ratioP1;P1;durP2;ratioP2;P2;SDS_P1;SDS_P2;PMS_P1;PMS_P2;Temp;Humidity;BMP_temperature;BMP_pressure;BME280_temperature;BME280_humidity;BME280_pressure;Samples;Min_cycle;Max_cycle;Signal;HPM_P1;HPM_P2
2022/10/14 00:00:32;;;;;;;5.83;5.20;;;9.90;99.90;9.80;100664.00;;;;4950910;28;93565;-60
2022/10/14 00:02:58;;;;;;;7.17;4.77;;;9.90;99.90;9.90;100662.00;;;;4953210;28;108541;-60
2022/10/14 00:05:24;;;;;;;12.53;4.93;;;9.90;99.90;9.90;100664.00;;;;4954438;28;95570;-59
2022/10/14 00:07:50;;;;;;;5.30;4.87;;;9.90;99.90;9.90;100653.00;;;;4945990;28;88702;-60
2022/10/14 00:10:15;;;;;;;7.40;4.57;;;9.90;99.90;9.90;100659.00;;;;4941850;28;87788;-60
2022/10/14 00:12:41;;;;;;;7.57;4.93;;;9.90;99.90;9.90;100663.00;;;;4947244;28;101239;-60
2022/10/14 00:15:07;;;;;;;10.57;5.40;;;9.90;99.90;9.90;100657.00;;;;4946850;28;118215;-60
2022/10/14 00:17:33;;;;;;;5.03;3.80;;;9.90;99.90;9.90;100654.00;;;;4954233;28;93653;-60
2022/10/14 00:19:59;;;;;;;7.80;5.77;;;9.90;99.90;9.90;100653.00;;;;4953180;28;110756;-60
2022/10/14 00:22:25;;;;;;;11.20;6.80;;;10.00;99.90;10.00;100654.00;;;;4946862;28;109766;-59
2022/10/14 00:24:50;;;;;;;9.23;5.37;;;10.00;99.90;10.00;100655.00;;;;4953775;28;118491;-61
2022/10/14 00:27:16;;;;;;;7.60;5.83;;;10.00;99.90;10.00;100656.00;;;;4952873;28;114789;-60
2022/10/14 00:29:42;;;;;;;10.43;7.33;;;10.10;99.90;10.00;100655.00;;;;4946278;28;109319;-61
2022/10/14 00:32:08;;;;;;;9.40;6.00;;;10.10;99.90;10.00;100656.00;;;;4949886;28;108662;-60
2022/10/14 00:34:34;;;;;;;7.90;5.63;;;10.10;99.90;10.00;100648.00;;;;4948722;28;116796;-61
2022/10/14 00:37:00;;;;;;;10.33;5.17;;;10.10;99.90;10.00;100646.00;;;;4947621;28;117769;-59
2022/10/14 00:39:26;;;;;;;9.63;6.90;;;10.10;99.90;10.00;100645.00;;;;4955273;28;95551;-60
2022/10/14 00:41:51;;;;;;;10.53;6.07;;;10.10;99.90;10.00;100642.00;;;;4951896;28;108068;-60
2022/10/14 00:44:17;;;;;;;11.00;6.07;;;10.10;99.90;10.00;100648.00;;;;4943955;28;118559;-60
2022/10/14 00:46:46;;;;;;;8.83;6.10;;;10.00;99.90;10.00;100648.00;;;;4954523;28;116994;-60
2022/10/14 00:49:20;;;;;;;6.23;5.63;;;10.00;99.90;9.90;100661.00;;;;4945248;28;87478;-60
2022/10/14 00:52:01;;;;;;;16.73;5.67;;;10.00;99.90;9.90;100653.00;;;;4953092;28;88212;-60
2022/10/14 00:54:38;;;;;;;5.87;5.27;;;10.00;99.90;9.80;100654.00;;;;4956795;28;110533;-60
2022/10/14 00:57:04;;;;;;;6.97;5.87;;;9.90;99.90;9.80;100661.00;;;;4951647;28;89040;-60
2022/10/14 00:59:32;;;;;;;10.30;6.63;;;9.90;99.90;9.80;100661.00;;;;4951925;28;87904;-60
2022/10/14 01:01:58;;;;;;;6.83;6.13;;;9.90;99.90;9.80;100647.00;;;;4954742;28;110510;-60
2022/10/14 01:04:25;;;;;;;8.43;5.90;;;9.90;99.90;9.80;100646.00;;;;4948325;28;104448;-60
2022/10/14 01:07:07;;;;;;;9.63;6.03;;;9.90;99.90;9.80;100655.00;;;;4969889;28;108750;-59
2022/10/14 01:09:58;;;;;;;8.77;5.77;;;9.90;99.90;9.80;100644.00;;;;4952340;28;87958;-61
2022/10/14 01:13:03;;;;;;;9.40;6.00;;;9.90;99.90;9.80;100649.00;;;;4950563;28;87755;-59
2022/10/14 01:15:54;;;;;;;7.50;6.70;;;9.90;99.90;9.80;100650.00;;;;4954698;28;94388;-60
2022/10/14 01:18:50;;;;;;;13.70;6.67;;;9.90;99.90;9.90;100646.00;;;;4947805;28;109903;-60
2022/10/14 01:21:42;;;;;;;8.30;6.63;;;9.90;99.90;9.90;100643.00;;;;4954174;28;87826;-60
2022/10/14 01:24:40;;;;;;;8.23;7.33;;;10.00;99.90;9.90;100641.00;;;;4945238;28;100506;-60
2022/10/14 01:27:39;;;;;;;8.93;6.63;;;10.00;99.90;9.90;100649.00;;;;4945778;28;91795;-61
2022/10/14 01:30:15;;;;;;;8.87;5.83;;;10.00;99.90;10.00;100646.00;;;;4947781;28;88155;-60
2022/10/14 01:33:05;;;;;;;8.30;6.50;;;10.00;99.90;10.00;100641.00;;;;4968693;28;92787;-60
2022/10/14 01:35:57;;;;;;;7.97;5.80;;;10.10;99.90;10.10;100651.00;;;;4968183;28;87856;-60
2022/10/14 01:38:39;;;;;;;12.67;6.10;;;10.20;99.90;10.20;100646.00;;;;4967814;28;110735;-60
2022/10/14 01:41:15;;;;;;;10.63;7.03;;;10.10;99.90;10.20;100636.00;;;;4964358;28;88043;-60
2022/10/14 01:43:44;;;;;;;7.13;5.87;;;10.30;99.90;10.30;100642.00;;;;4951383;28;99393;-60
2022/10/14 01:46:12;;;;;;;11.27;5.37;;;10.30;99.90;10.30;100630.00;;;;4949344;28;87939;-60
2022/10/14 01:48:44;;;;;;;6.63;4.50;;;10.30;99.90;10.40;100631.00;;;;4944235;28;113472;-61
2022/10/14 01:51:28;;;;;;;7.17;5.70;;;10.40;99.90;10.40;100632.00;;;;4939454;28;88589;-59
2022/10/14 01:54:03;;;;;;;14.80;5.80;;;10.50;99.90;10.40;100624.00;;;;4943214;28;90877;-60
2022/10/14 01:56:31;;;;;;;9.20;5.93;;;10.50;99.90;10.50;100629.00;;;;4951459;28;87967;-60
2022/10/14 01:59:00;;;;;;;11.97;6.47;;;10.50;99.90;10.50;100624.00;;;;4951675;28;87887;-61
2022/10/14 02:01:26;;;;;;;6.77;4.93;;;10.50;99.90;10.50;100622.00;;;;4945577;28;88532;-60
2022/10/14 02:03:52;;;;;;;7.13;4.60;;;10.60;99.90;10.50;100625.00;;;;4950571;28;110269;-60
2022/10/14 02:06:32;;;;;;;8.13;5.50;;;10.60;99.90;10.50;100617.00;;;;4954692;28;87529;-60
2022/10/14 02:09:39;;;;;;;6.37;4.80;;;10.60;99.90;10.50;100611.00;;;;4946817;28;87238;-60
2022/10/14 02:12:35;;;;;;;6.67;4.43;;;10.60;99.90;10.60;100620.00;;;;4950925;28;109586;-60
2022/10/14 02:15:27;;;;;;;5.80;5.27;;;10.60;99.90;10.60;100612.00;;;;4952582;28;103749;-60
2022/10/14 02:18:16;;;;;;;6.03;4.67;;;10.60;99.90;10.60;100615.00;;;;4951247;28;88617;-59
2022/10/14 02:21:11;;;;;;;8.87;5.20;;;10.70;99.90;10.60;100617.00;;;;4951157;28;88574;-60
2022/10/14 02:23:45;;;;;;;9.10;4.97;;;10.70;99.90;10.70;100609.00;;;;4953369;28;87927;-60
2022/10/14 02:26:12;;;;;;;6.87;4.80;;;10.70;99.90;10.70;100611.00;;;;4964501;28;103481;-60
2022/10/14 02:28:39;;;;;;;6.27;3.80;;;10.70;99.90;10.70;100615.00;;;;4944838;28;107934;-60
2022/10/14 02:31:12;;;;;;;5.60;4.67;;;10.80;99.90;10.70;100617.00;;;;4947516;28;103524;-60
2022/10/14 02:33:41;;;;;;;5.53;4.53;;;10.70;99.90;10.70;100610.00;;;;4966387;28;108583;-60
2022/10/14 02:36:10;;;;;;;6.87;4.60;;;10.80;99.90;10.70;100610.00;;;;4948060;28;100003;-60
2022/10/14 02:38:38;;;;;;;6.63;3.93;;;10.80;99.90;10.70;100610.00;;;;4953066;28;92471;-60
2022/10/14 02:41:10;;;;;;;6.10;4.27;;;10.80;99.90;10.70;100606.00;;;;4965788;28;107156;-60
2022/10/14 02:43:37;;;;;;;8.20;5.03;;;10.70;99.90;10.70;100608.00;;;;4946936;28;108270;-60
2022/10/14 02:46:03;;;;;;;6.53;4.97;;;10.80;99.90;10.70;100608.00;;;;4944674;28;109476;-60
2022/10/14 02:48:29;;;;;;;12.50;4.93;;;10.70;99.90;10.70;100609.00;;;;4954613;28;87932;-60
2022/10/14 02:50:55;;;;;;;5.17;4.53;;;10.70;99.90;10.70;100605.00;;;;4949395;28;118491;-60
2022/10/14 02:53:20;;;;;;;6.53;4.83;;;10.80;99.90;10.70;100599.00;;;;4953302;28;117246;-60
2022/10/14 02:55:46;;;;;;;10.57;5.63;;;10.70;99.90;10.70;100602.00;;;;4957582;28;111142;-60
2022/10/14 02:58:12;;;;;;;7.77;5.43;;;10.70;99.90;10.70;100600.00;;;;4951866;28;87855;-61
2022/10/14 03:00:37;;;;;;;7.10;5.33;;;10.80;99.90;10.70;100597.00;;;;4952864;28;116746;-60
2022/10/14 03:03:03;;;;;;;6.87;3.83;;;10.80;99.90;10.70;100595.00;;;;4956734;28;88058;-60
2022/10/14 03:05:29;;;;;;;7.23;5.00;;;10.80;99.90;10.80;100599.00;;;;4950072;28;109317;-61
2022/10/14 03:07:54;;;;;;;8.07;5.77;;;10.80;99.90;10.80;100599.00;;;;4956379;28;108099;-60
2022/10/14 03:10:20;;;;;;;11.60;5.60;;;10.80;99.90;10.80;100595.00;;;;4954389;28;117486;-61
2022/10/14 03:12:46;;;;;;;14.13;6.17;;;10.80;99.90;10.80;100596.00;;;;4946865;28;106773;-61
2022/10/14 03:15:11;;;;;;;11.27;6.13;;;10.80;99.90;10.80;100601.00;;;;4953072;28;111272;-61
2022/10/14 03:17:37;;;;;;;6.03;4.23;;;10.80;99.90;10.80;100598.00;;;;4956420;28;87739;-61
2022/10/14 03:20:05;;;;;;;9.30;5.43;;;10.90;99.90;10.80;100589.00;;;;4953675;28;116848;-61
2022/10/14 03:22:31;;;;;;;7.30;6.13;;;10.90;99.90;10.80;100597.00;;;;4954679;28;107478;-61
2022/10/14 03:24:56;;;;;;;8.67;6.70;;;10.90;99.90;10.90;100589.00;;;;4955983;28;86887;-61
2022/10/14 03:27:22;;;;;;;7.50;5.20;;;10.90;99.90;10.90;100591.00;;;;4947946;28;107839;-61
2022/10/14 03:29:48;;;;;;;15.30;5.43;;;10.90;99.90;10.90;100602.00;;;;4956790;28;88797;-61
2022/10/14 03:32:14;;;;;;;9.93;6.20;;;10.90;99.90;10.90;100596.00;;;;4949067;28;89661;-61
2022/10/14 03:34:39;;;;;;;6.37;5.60;;;10.90;99.90;10.90;100590.00;;;;4947892;28;109735;-61
2022/10/14 03:37:06;;;;;;;10.90;6.43;;;10.90;99.90;10.90;100587.00;;;;4955963;28;97100;-60
2022/10/14 03:39:32;;;;;;;7.20;6.13;;;11.00;99.90;10.90;100590.00;;;;4954282;28;87880;-61
2022/10/14 03:41:57;;;;;;;7.57;5.20;;;11.00;99.90;10.90;100592.00;;;;4949061;28;116188;-61
2022/10/14 03:44:23;;;;;;;7.43;6.23;;;10.90;99.90;10.90;100596.00;;;;4955272;28;87845;-61
2022/10/14 03:46:49;;;;;;;9.47;6.80;;;11.00;99.90;10.90;100594.00;;;;4953779;28;108635;-61
2022/10/14 03:49:14;;;;;;;8.10;5.20;;;11.00;99.90;10.90;100580.00;;;;4946134;28;115259;-60
2022/10/14 03:51:40;;;;;;;8.43;5.83;;;11.00;99.90;10.90;100586.00;;;;4950200;28;116604;-61
2022/10/14 03:54:06;;;;;;;12.17;6.93;;;10.90;99.90;10.90;100582.00;;;;4946289;28;110328;-61
2022/10/14 03:56:31;;;;;;;9.30;6.87;;;10.90;99.90;10.90;100574.00;;;;4951190;28;88475;-61
2022/10/14 03:58:57;;;;;;;9.87;6.00;;;11.00;99.90;10.90;100593.00;;;;4955308;28;98618;-59
2022/10/14 04:01:23;;;;;;;7.73;5.17;;;11.00;99.90;10.90;100581.00;;;;4952374;28;116546;-61
2022/10/14 04:03:49;;;;;;;9.63;6.20;;;10.90;99.90;10.90;100574.00;;;;4948023;28;109727;-61
2022/10/14 04:06:15;;;;;;;9.70;6.03;;;11.00;99.90;10.90;100577.00;;;;4956822;28;88022;-61
2022/10/14 04:08:42;;;;;;;11.73;7.37;;;11.00;99.90;10.90;100572.00;;;;4951380;28;117597;-61
2022/10/14 04:11:08;;;;;;;10.80;6.47;;;10.90;99.90;10.90;100575.00;;;;4948528;28;87690;-60
2022/10/14 04:13:35;;;;;;;4.90;3.73;;;11.00;99.90;10.90;100567.00;;;;4956013;28;87034;-60
2022/10/14 04:16:06;;;;;;;7.43;5.57;;;11.00;99.90;10.90;100557.00;;;;4950422;28;87665;-61
2022/10/14 04:18:33;;;;;;;7.13;5.10;;;10.90;99.90;10.90;100561.00;;;;4952674;28;88769;-61
2022/10/14 04:21:05;;;;;;;14.57;5.87;;;10.90;99.90;10.90;100562.00;;;;4954187;28;89062;-61
2022/10/14 04:23:31;;;;;;;7.50;5.53;;;10.90;99.90;10.90;100558.00;;;;4947059;28;104526;-60
2022/10/14 04:25:56;;;;;;;8.83;5.37;;;11.00;99.90;10.90;100555.00;;;;4945417;28;102604;-61
2022/10/14 04:28:22;;;;;;;8.93;6.40;;;11.00;99.90;10.90;100560.00;;;;4951083;28;118178;-60
2022/10/14 04:30:48;;;;;;;8.73;5.47;;;10.90;99.90;10.90;100557.00;;;;4947366;28;103518;-61
2022/10/14 04:33:13;;;;;;;10.47;6.40;;;10.90;99.90;10.90;100563.00;;;;4951467;28;109154;-61
2022/10/14 04:35:39;;;;;;;12.23;5.50;;;10.90;99.90;10.90;100567.00;;;;4954972;28;108330;-60
2022/10/14 04:38:05;;;;;;;12.17;6.13;;;10.90;99.90;10.90;100562.00;;;;4948639;28;117114;-61
2022/10/14 04:40:30;;;;;;;5.93;4.60;;;10.90;99.90;10.90;100559.00;;;;4951806;28;116839;-61
2022/10/14 04:42:58;;;;;;;8.97;6.20;;;10.90;99.90;10.90;100554.00;;;;4955453;28;89266;-61
2022/10/14 04:45:24;;;;;;;9.17;6.63;;;10.90;99.90;10.80;100556.00;;;;4948018;28;89172;-59
2022/10/14 04:47:51;;;;;;;8.73;6.87;;;10.90;99.90;10.90;100556.00;;;;4954402;28;89012;-59
2022/10/14 04:50:18;;;;;;;10.53;7.13;;;10.90;99.90;10.80;100550.00;;;;4949246;28;105306;-60
2022/10/14 04:52:44;;;;;;;12.67;8.50;;;10.90;99.90;10.80;100543.00;;;;4949951;28;87893;-61
2022/10/14 04:55:10;;;;;;;11.00;7.40;;;10.90;99.90;10.80;100550.00;;;;4956302;28;87824;-61
2022/10/14 04:57:38;;;;;;;9.63;6.17;;;10.90;99.90;10.90;100558.00;;;;4957159;28;87780;-60
2022/10/14 05:00:05;;;;;;;10.30;7.53;;;10.90;99.90;10.90;100559.00;;;;4948920;28;87996;-61
2022/10/14 05:02:31;;;;;;;7.97;6.17;;;10.90;99.90;10.80;100549.00;;;;4954403;28;87070;-60
2022/10/14 05:04:56;;;;;;;8.90;5.97;;;10.90;99.90;10.80;100559.00;;;;4951968;28;87854;-60
2022/10/14 05:07:22;;;;;;;12.20;7.03;;;10.90;99.90;10.80;100555.00;;;;4946837;28;116713;-61
2022/10/14 05:09:47;;;;;;;7.27;6.27;;;10.90;99.90;10.80;100555.00;;;;4949521;28;117501;-61
2022/10/14 05:12:13;;;;;;;12.60;7.07;;;10.90;99.90;10.80;100548.00;;;;4940234;28;111603;-61
2022/10/14 05:14:39;;;;;;;13.83;7.43;;;10.90;99.90;10.80;100544.00;;;;4946842;28;96757;-61
2022/10/14 05:17:04;;;;;;;7.27;6.10;;;10.90;99.90;10.80;100549.00;;;;4953024;28;111325;-61
2022/10/14 05:19:30;;;;;;;6.53;5.60;;;10.80;99.90;10.80;100541.00;;;;4950750;28;118034;-61
2022/10/14 05:21:56;;;;;;;10.80;6.63;;;10.80;99.90;10.80;100555.00;;;;4950018;28;87675;-61
2022/10/14 05:24:21;;;;;;;12.33;7.67;;;10.80;99.90;10.80;100549.00;;;;4953027;28;109415;-61
2022/10/14 05:26:47;;;;;;;11.77;7.67;;;10.90;99.90;10.80;100557.00;;;;4950338;28;117798;-60
2022/10/14 05:29:13;;;;;;;12.07;7.63;;;10.90;99.90;10.90;100545.00;;;;4948994;28;87884;-61
2022/10/14 05:31:39;;;;;;;13.30;7.40;;;10.90;99.90;10.90;100540.00;;;;4954453;28;87738;-60
2022/10/14 05:34:05;;;;;;;7.40;6.57;;;10.90;99.90;10.90;100539.00;;;;4944390;28;96153;-61
2022/10/14 05:36:30;;;;;;;7.63;6.33;;;10.90;99.90;10.90;100543.00;;;;4948368;28;106605;-61
2022/10/14 05:38:57;;;;;;;9.17;6.10;;;10.90;99.90;10.90;100542.00;;;;4954097;28;94851;-61
2022/10/14 05:41:24;;;;;;;7.33;5.77;;;10.90;99.90;10.90;100536.00;;;;4951509;28;87915;-61
2022/10/14 05:43:50;;;;;;;9.27;5.87;;;10.90;99.90;10.90;100548.00;;;;4946592;28;87613;-58
2022/10/14 05:46:15;;;;;;;11.63;7.10;;;10.90;99.90;10.90;100540.00;;;;4954591;28;88147;-61
2022/10/14 05:48:42;;;;;;;8.87;6.93;;;11.00;99.90;11.00;100536.00;;;;4949114;28;117815;-59
2022/10/14 05:51:08;;;;;;;11.53;7.57;;;11.00;99.90;11.00;100542.00;;;;4945464;28;111055;-61
2022/10/14 05:53:35;;;;;;;13.67;7.27;;;11.00;99.90;11.00;100541.00;;;;4955817;28;87936;-60
2022/10/14 05:56:07;;;;;;;11.53;8.23;;;11.00;99.90;11.00;100540.00;;;;4947882;28;88723;-60
2022/10/14 05:58:33;;;;;;;9.57;6.53;;;11.00;99.90;11.10;100540.00;;;;4950146;28;101734;-60
2022/10/14 06:01:01;;;;;;;19.80;8.13;;;11.00;99.90;11.10;100542.00;;;;4955722;28;87670;-60
2022/10/14 06:03:27;;;;;;;9.27;6.63;;;11.10;99.90;11.10;100547.00;;;;4947988;28;99715;-61
2022/10/14 06:05:53;;;;;;;13.53;7.00;;;11.10;99.90;11.10;100551.00;;;;4946579;28;88208;-61
2022/10/14 06:08:19;;;;;;;9.47;6.73;;;11.10;99.90;11.10;100548.00;;;;4954836;28;88350;-60
2022/10/14 06:10:45;;;;;;;11.30;7.17;;;11.20;99.90;11.10;100544.00;;;;4947620;28;87776;-59
2022/10/14 06:13:11;;;;;;;11.17;6.53;;;11.20;99.90;11.20;100548.00;;;;4950962;28;109028;-61
2022/10/14 06:15:37;;;;;;;7.73;6.33;;;11.20;99.90;11.20;100547.00;;;;4953922;28;87746;-60
2022/10/14 06:18:03;;;;;;;12.17;7.00;;;11.20;99.90;11.20;100545.00;;;;4947405;28;115437;-61
2022/10/14 06:20:28;;;;;;;9.70;7.10;;;11.20;99.90;11.20;100551.00;;;;4951429;28;87920;-60
2022/10/14 06:22:54;;;;;;;10.40;7.00;;;11.20;99.90;11.30;100547.00;;;;4953294;28;88902;-61
2022/10/14 06:25:20;;;;;;;11.50;7.00;;;11.30;99.90;11.30;100552.00;;;;4945690;28;117597;-61
2022/10/14 06:27:45;;;;;;;8.57;5.23;;;11.30;99.90;11.30;100551.00;;;;4941156;28;88015;-61
2022/10/14 06:30:12;;;;;;;10.17;7.30;;;11.30;99.90;11.30;100548.00;;;;4948232;28;110403;-61
2022/10/14 06:32:38;;;;;;;13.40;7.50;;;11.30;99.90;11.40;100547.00;;;;4945710;28;87699;-61
2022/10/14 06:35:04;;;;;;;11.93;6.67;;;11.40;99.90;11.40;100549.00;;;;4951030;28;116847;-60
2022/10/14 06:37:30;;;;;;;8.93;5.77;;;11.40;99.90;11.40;100546.00;;;;4951893;28;88288;-60
2022/10/14 06:39:55;;;;;;;10.33;6.10;;;11.50;99.90;11.50;100557.00;;;;4948306;28;111538;-60
2022/10/14 06:42:21;;;;;;;11.80;6.50;;;11.50;99.90;11.50;100552.00;;;;4952566;28;108692;-60
2022/10/14 06:44:47;;;;;;;13.20;7.37;;;11.50;99.90;11.60;100559.00;;;;4950045;28;118242;-61
2022/10/14 06:47:12;;;;;;;10.83;6.40;;;11.50;99.90;11.60;100554.00;;;;4943215;28;118402;-61
2022/10/14 06:49:38;;;;;;;10.90;6.23;;;11.60;99.90;11.60;100552.00;;;;4937716;28;110536;-61
2022/10/14 06:52:04;;;;;;;8.60;4.73;;;11.60;99.90;11.70;100552.00;;;;4943962;28;87705;-61
2022/10/14 06:54:30;;;;;;;7.83;5.00;;;11.70;99.90;11.80;100556.00;;;;4949878;28;87917;-60
2022/10/14 06:56:55;;;;;;;9.97;7.07;;;11.70;99.90;11.80;100560.00;;;;4951814;28;115961;-58
2022/10/14 06:59:21;;;;;;;9.17;5.43;;;11.80;99.90;11.90;100568.00;;;;4949119;28;108767;-60
2022/10/14 07:01:47;;;;;;;12.30;7.13;;;11.90;99.90;12.00;100564.00;;;;4948431;28;87775;-61
2022/10/14 07:04:12;;;;;;;8.70;6.50;;;12.00;99.90;12.00;100566.00;;;;4951982;28;116080;-60
2022/10/14 07:06:38;;;;;;;10.83;6.77;;;12.00;99.90;12.10;100559.00;;;;4949451;28;115452;-61
2022/10/14 07:09:04;;;;;;;8.87;5.90;;;12.00;99.90;12.10;100563.00;;;;4941506;28;110482;-60
2022/10/14 07:11:30;;;;;;;10.50;7.27;;;12.10;99.90;12.10;100556.00;;;;4945001;28;109481;-60
2022/10/14 07:13:56;;;;;;;8.80;5.90;;;12.10;99.90;12.20;100560.00;;;;4940393;28;117267;-59
2022/10/14 07:16:22;;;;;;;13.47;6.30;;;12.20;99.90;12.30;100562.00;;;;4950020;28;88651;-61
2022/10/14 07:18:48;;;;;;;8.53;5.53;;;12.20;99.90;12.40;100566.00;;;;4953363;28;89385;-61
2022/10/14 07:21:14;;;;;;;10.73;7.17;;;12.30;99.90;12.40;100569.00;;;;4948367;28;100115;-61
2022/10/14 07:23:39;;;;;;;8.47;6.53;;;12.40;99.90;12.50;100565.00;;;;4945725;28;105804;-61
2022/10/14 07:26:05;;;;;;;8.07;6.50;;;12.40;99.90;12.60;100573.00;;;;4952992;28;87736;-61
2022/10/14 07:28:32;;;;;;;13.40;6.37;;;12.50;99.90;12.60;100569.00;;;;4946825;28;89538;-59
2022/10/14 07:31:08;;;;;;;13.83;5.97;;;12.60;99.90;12.70;100561.00;;;;4949284;28;87894;-60
2022/10/14 07:33:36;;;;;;;6.47;5.63;;;12.60;99.90;12.70;100565.00;;;;4956178;28;88066;-60
2022/10/14 07:36:07;;;;;;;7.23;5.00;;;12.70;99.90;12.80;100570.00;;;;4947358;28;100462;-60
2022/10/14 07:38:32;;;;;;;8.37;5.20;;;12.70;99.90;12.80;100555.00;;;;4954590;28;87599;-61
2022/10/14 07:41:06;;;;;;;9.30;6.27;;;12.80;99.90;12.90;100562.00;;;;4956722;28;88002;-61
2022/10/14 07:43:33;;;;;;;7.33;5.37;;;12.80;99.90;13.00;100566.00;;;;4947476;28;88452;-59
2022/10/14 07:46:06;;;;;;;8.77;5.90;;;12.90;99.90;13.00;100568.00;;;;4951180;28;87699;-59
2022/10/14 07:48:33;;;;;;;9.33;5.33;;;13.00;99.90;13.10;100563.00;;;;4946562;28;87866;-60
2022/10/14 07:50:59;;;;;;;11.70;5.33;;;13.00;99.90;13.20;100569.00;;;;4948543;28;93737;-61
2022/10/14 07:53:25;;;;;;;9.20;5.70;;;13.10;99.90;13.20;100578.00;;;;4956600;28;97821;-61
2022/10/14 07:55:52;;;;;;;13.30;5.97;;;13.20;99.90;13.30;100593.00;;;;4955428;28;87923;-61
2022/10/14 07:58:24;;;;;;;8.83;5.97;;;13.20;99.90;13.40;100582.00;;;;4950176;28;87668;-60
2022/10/14 08:00:50;;;;;;;5.73;5.10;;;13.30;99.90;13.40;100579.00;;;;4955067;28;88565;-60
2022/10/14 08:03:17;;;;;;;9.57;4.77;;;13.40;99.90;13.50;100578.00;;;;4952170;28;117247;-60
2022/10/14 08:05:43;;;;;;;7.87;4.47;;;13.40;99.90;13.60;100576.00;;;;4946913;28;87869;-60
2022/10/14 08:08:10;;;;;;;7.40;5.27;;;13.50;99.90;13.70;100582.00;;;;4951146;28;87435;-60
2022/10/14 08:10:37;;;;;;;6.33;4.43;;;13.60;99.90;13.70;100581.00;;;;4950855;28;97809;-59
2022/10/14 08:13:03;;;;;;;21.17;6.50;;;13.70;99.90;13.80;100599.00;;;;4954677;28;88481;-61
2022/10/14 08:15:39;;;;;;;8.93;5.43;;;13.70;99.90;13.90;100595.00;;;;4953906;28;87949;-61
2022/10/14 08:18:06;;;;;;;7.43;5.47;;;13.80;99.90;14.00;100590.00;;;;4952959;28;86984;-61
2022/10/14 08:20:32;;;;;;;9.40;4.67;;;13.80;99.90;14.10;100589.00;;;;4952757;28;87877;-60
2022/10/14 08:22:59;;;;;;;8.37;4.70;;;14.00;99.90;14.20;100592.00;;;;4954795;28;88339;-60
2022/10/14 08:25:25;;;;;;;6.07;3.83;;;14.00;99.90;14.20;100587.00;;;;4950552;28;88990;-61
2022/10/14 08:27:52;;;;;;;8.33;5.10;;;14.10;99.90;14.30;100586.00;;;;4944712;28;98634;-61
2022/10/14 08:30:19;;;;;;;6.70;3.93;;;14.20;99.90;14.50;100588.00;;;;4945982;28;88032;-62
2022/10/14 08:32:45;;;;;;;3.90;3.60;;;14.30;99.90;14.60;100588.00;;;;4943851;28;107204;-61
2022/10/14 08:35:10;;;;;;;6.23;5.50;;;14.40;99.90;14.70;100586.00;;;;4952280;28;88349;-61
2022/10/14 08:37:36;;;;;;;5.73;5.13;;;14.50;99.90;14.80;100590.00;;;;4955278;28;108477;-62
2022/10/14 08:40:03;;;;;;;5.70;3.80;;;14.60;99.90;14.90;100587.00;;;;4949796;28;94040;-61
2022/10/14 08:42:48;;;;;;;6.63;4.73;;;14.80;99.90;15.00;100582.00;;;;4951448;28;100380;-62
2022/10/14 08:45:28;;;;;;;8.40;4.75;;;14.90;99.90;15.10;100582.00;;;;4952864;28;87845;-62
2022/10/14 08:47:56;;;;;;;5.35;4.43;;;15.00;99.90;15.20;100572.00;;;;4949433;28;87925;-61
2022/10/14 08:50:50;;;;;;;8.63;5.13;;;15.10;99.90;15.60;100570.00;;;;4939083;28;93409;-61
2022/10/14 08:53:27;;;;;;;5.40;4.05;;;15.40;99.90;15.90;100579.00;;;;4970138;28;94957;-60
2022/10/14 08:55:58;;;;;;;5.60;3.95;;;15.70;99.90;16.10;100579.00;;;;4954807;28;88737;-61
2022/10/14 08:58:48;;;;;;;7.95;4.72;;;15.90;99.90;16.20;100595.00;;;;4969420;28;87761;-61
2022/10/14 09:01:32;;;;;;;7.60;4.22;;;16.10;99.90;16.30;100580.00;;;;4954516;28;87789;-61
2022/10/14 09:04:11;;;;;;;9.43;5.47;;;16.20;99.90;16.30;100567.00;;;;4951758;28;87936;-61
2022/10/14 09:06:42;;;;;;;5.88;4.45;;;16.20;99.90;16.30;100562.00;;;;4952240;28;88635;-61
2022/10/14 09:09:37;;;;;;;8.25;4.07;;;16.20;99.90;16.40;100567.00;;;;4946744;28;104148;-61
2022/10/14 09:12:14;;;;;;;7.22;4.32;;;16.30;99.90;16.50;100567.00;;;;4953090;28;87607;-61
2022/10/14 09:14:47;;;;;;;6.57;4.30;;;16.30;99.90;16.60;100571.00;;;;4954019;28;88080;-60
2022/10/14 09:17:26;;;;;;;4.30;3.35;;;16.50;99.90;16.60;100571.00;;;;4947919;28;88595;-62
2022/10/14 09:20:07;;;;;;;9.93;3.97;;;16.50;99.90;16.60;100569.00;;;;4954848;28;87593;-61
2022/10/14 09:22:33;;;;;;;12.77;4.22;;;16.50;99.90;16.60;100573.00;;;;4953070;28;87739;-62
2022/10/14 09:25:00;;;;;;;4.57;3.67;;;17.60;99.90;16.60;100568.00;;;;4954291;28;118480;-61
2022/10/14 09:27:27;;;;;;;8.70;4.60;;;16.50;99.90;16.60;100567.00;;;;4954477;28;88443;-60
2022/10/14 09:29:59;;;;;;;4.07;3.70;;;16.50;99.90;17.00;100568.00;;;;4950154;28;88377;-60
2022/10/14 09:32:36;;;;;;;5.50;3.72;;;16.70;99.90;17.50;100562.00;;;;4948110;28;87639;-61
2022/10/14 09:35:02;;;;;;;6.03;4.47;;;17.10;99.90;17.80;100562.00;;;;4953905;28;104969;-62
2022/10/14 09:37:30;;;;;;;6.78;3.85;;;17.50;99.90;18.10;100559.00;;;;4946908;28;108846;-59
2022/10/14 09:40:33;;;;;;;9.13;3.47;;;17.80;99.90;18.60;100549.00;;;;4953754;28;88035;-59
2022/10/14 09:43:19;;;;;;;9.32;4.18;;;18.20;99.90;19.00;100552.00;;;;4948195;28;101075;-58
2022/10/14 09:45:59;;;;;;;7.72;4.20;;;18.60;99.90;19.40;100556.00;;;;4953599;28;94633;-62
2022/10/14 09:48:36;;;;;;;4.80;3.35;;;19.00;99.90;19.60;100562.00;;;;4955048;28;87968;-62
2022/10/14 09:51:18;;;;;;;4.53;3.63;;;19.30;99.90;20.00;100556.00;;;;4944307;28;87634;-61
2022/10/14 09:53:48;;;;;;;8.48;3.53;;;19.70;99.90;20.40;100558.00;;;;4953870;28;87701;-62
2022/10/14 09:56:14;;;;;;;5.68;3.17;;;20.00;99.90;20.90;100550.00;;;;4952636;28;109591;-60
2022/10/14 09:58:50;;;;;;;3.35;2.90;;;20.40;99.90;21.20;100557.00;;;;4947906;28;118478;-59
2022/10/14 10:01:21;;;;;;;6.13;3.75;;;20.80;99.70;21.30;100561.00;;;;4966198;28;87055;-60
2022/10/14 10:03:50;;;;;;;6.32;3.88;;;21.00;98.00;21.30;100557.00;;;;4954247;28;87889;-58
2022/10/14 10:06:24;;;;;;;4.85;3.25;;;21.00;97.30;21.00;100551.00;;;;4953920;28;92821;-60
2022/10/14 10:08:57;;;;;;;4.60;2.97;;;20.90;95.90;20.70;100548.00;;;;4942899;28;88657;-60
2022/10/14 10:11:36;;;;;;;5.57;3.63;;;20.60;94.40;20.40;100547.00;;;;4948910;28;87669;-60
2022/10/14 10:14:31;;;;;;;4.53;3.88;;;20.30;95.30;20.50;100546.00;;;;4950512;28;87911;-62
2022/10/14 10:17:06;;;;;;;5.55;2.67;;;20.20;95.60;20.80;100535.00;;;;4951893;28;88991;-63
2022/10/14 10:19:39;;;;;;;3.85;3.15;;;20.50;96.00;21.00;100526.00;;;;4949027;28;88648;-59
2022/10/14 10:22:25;;;;;;;4.25;3.42;;;20.70;95.40;21.30;100527.00;;;;4949348;28;87906;-62
2022/10/14 10:24:59;;;;;;;4.20;3.22;;;20.90;95.40;21.60;100534.00;;;;4952206;28;87746;-62
2022/10/14 10:27:27;;;;;;;3.42;2.50;;;21.30;95.20;21.90;100541.00;;;;4949509;28;87154;-62
2022/10/14 10:29:55;;;;;;;3.17;2.63;;;21.50;94.60;21.90;100538.00;;;;4941553;28;87744;-62
2022/10/14 10:32:29;;;;;;;2.70;1.73;;;21.60;93.90;21.80;100533.00;;;;4939339;28;87850;-61
2022/10/14 10:35:22;;;;;;;4.93;2.80;;;21.60;92.90;21.40;100536.00;;;;4953737;28;88945;-62
2022/10/14 10:38:19;;;;;;;3.85;3.42;;;21.30;92.10;20.90;100534.00;;;;4954383;28;89051;-60
2022/10/14 10:41:10;;;;;;;4.90;2.95;;;20.90;92.30;20.40;100536.00;;;;4948074;28;88018;-58
2022/10/14 10:44:01;;;;;;;4.22;2.95;;;20.50;92.70;20.00;100531.00;;;;4949493;28;87638;-60
2022/10/14 10:47:25;;;;;;;4.07;3.15;;;20.20;93.10;19.50;100535.00;;;;4953460;28;87995;-62
2022/10/14 10:49:56;;;;;;;4.20;3.03;;;19.70;92.90;19.20;100536.00;;;;4931497;28;91917;-60
2022/10/14 10:52:43;;;;;;;10.10;4.05;;;19.30;94.00;18.90;100528.00;;;;4956254;28;88284;-59
2022/10/14 10:55:45;;;;;;;3.22;2.88;;;19.00;94.60;18.60;100532.00;;;;4952520;28;87419;-60
2022/10/14 10:58:56;;;;;;;2.78;2.58;;;18.70;95.40;18.50;100523.00;;;;4951623;28;87770;-61